National Weather Service United States Department of Commerce

Heavy Rainfall Threat for Southern Plains and Mississippi Valley; Mild Temperatures for the East

Widespread showers and thunderstorms with the risk for flash flooding from the Southern Plains to the Mississippi Valley develops on Tuesday. Moisture tracking into the Pacific Northwest will bring heavy lower elevation/coastal rain and mountain snow. Meanwhile, unseasonably warm temperatures continue for the eastern two-thirds of the country. Read More >

TEX - Telluride, CO - Terminal Aerodrome Forecast (TAF)

FTUS52 KTEX 070521 RRE
KTEX 070520Z 0706/0806 13005KT P6SM SCT050 SCT060
     FM071200 12004KT P6SM SKC
     FM071800 28003KT P6SM SKC
     FM080000 14006KT P6SM SKC

For a printable version click KTEX TAF